Time;durP1;ratioP1;P1;durP2;ratioP2;P2;SDS_P1;SDS_P2;PMS_P1;PMS_P2;Temp;Humidity;BMP_temperature;BMP_pressure;BME280_temperature;BME280_humidity;BME280_pressure;Samples;Min_cycle;Max_cycle;Signal;HPM_P1;HPM_P2
2021/07/14 00:01:37;;;;;;;4.83;3.97;;;18.20;88.10;;;;;;5068743;28;20462;-43
2021/07/14 00:04:04;;;;;;;5.67;4.60;;;18.20;88.10;;;;;;5064375;28;20858;-44
2021/07/14 00:06:36;;;;;;;5.70;4.70;;;18.20;88.10;;;;;;5059264;28;20928;-45
2021/07/14 00:09:08;;;;;;;11.10;5.80;;;18.20;88.10;;;;;;5063015;28;20463;-45
2021/07/14 00:11:40;;;;;;;5.40;4.77;;;18.20;88.10;;;;;;5062626;28;20463;-44
2021/07/14 00:14:27;;;;;;;8.63;5.20;;;18.20;88.10;;;;;;5062447;28;20450;-45
2021/07/14 00:22:32;;;;;;;9.50;5.13;;;18.20;87.90;;;;;;5065261;28;21278;-45
2021/07/14 00:25:00;;;;;;;7.07;4.50;;;18.20;87.80;;;;;;5065839;28;20463;-44
2021/07/14 00:27:27;;;;;;;6.83;5.00;;;18.20;87.60;;;;;;5063834;28;20487;-45
2021/07/14 00:29:56;;;;;;;5.90;4.53;;;18.20;87.40;;;;;;5059980;28;20516;-45
2021/07/14 00:32:25;;;;;;;10.00;5.13;;;18.20;87.20;;;;;;5092882;28;20822;-44
2021/07/14 00:34:53;;;;;;;9.67;4.60;;;18.20;87.10;;;;;;5090491;28;20465;-45
2021/07/14 00:37:20;;;;;;;9.10;5.50;;;18.20;87.20;;;;;;5062450;28;20826;-45
2021/07/14 00:39:55;;;;;;;5.70;3.93;;;18.20;87.20;;;;;;5063986;28;21025;-44
2021/07/14 00:42:26;;;;;;;4.87;4.43;;;18.20;87.20;;;;;;5059125;28;20965;-44
2021/07/14 00:44:57;;;;;;;6.80;4.70;;;18.10;87.20;;;;;;5065243;28;20449;-45
2021/07/14 00:47:29;;;;;;;4.73;4.10;;;18.20;87.10;;;;;;5090115;28;20486;-45
2021/07/14 00:49:56;;;;;;;6.13;4.53;;;18.20;86.90;;;;;;5064905;28;20465;-43
2021/07/14 00:52:23;;;;;;;6.63;6.03;;;18.20;86.80;;;;;;5061596;28;20460;-44
2021/07/14 00:54:50;;;;;;;5.10;4.60;;;18.20;86.70;;;;;;5062315;28;20834;-43
2021/07/14 00:57:19;;;;;;;8.87;4.60;;;18.20;86.80;;;;;;5058894;28;20455;-44
2021/07/14 00:59:47;;;;;;;10.60;4.50;;;18.20;86.70;;;;;;5062025;28;20786;-45
2021/07/14 01:02:14;;;;;;;5.50;5.00;;;18.20;86.80;;;;;;5062859;28;20450;-44
2021/07/14 01:04:46;;;;;;;6.73;4.93;;;18.20;86.60;;;;;;5064859;28;20469;-43
2021/07/14 01:07:38;;;;;;;4.60;4.20;;;18.20;86.70;;;;;;5066007;28;20492;-43
2021/07/14 01:10:25;;;;;;;5.10;4.60;;;18.20;86.70;;;;;;5064492;28;20449;-44
2021/07/14 01:13:11;;;;;;;6.53;5.33;;;18.20;86.40;;;;;;5052437;28;20461;-44
2021/07/14 01:15:51;;;;;;;6.07;5.27;;;18.30;86.50;;;;;;5057074;28;20458;-44
2021/07/14 01:18:33;;;;;;;5.17;4.30;;;18.30;86.60;;;;;;5059336;28;20512;-45
2021/07/14 01:21:19;;;;;;;5.40;4.13;;;18.30;86.00;;;;;;5059962;28;20461;-43
2021/07/14 01:24:07;;;;;;;10.10;4.50;;;18.30;86.30;;;;;;5062130;28;20470;-44
2021/07/14 01:26:40;;;;;;;6.57;5.33;;;18.20;86.40;;;;;;5066988;28;20505;-44
2021/07/14 01:29:11;;;;;;;6.77;6.10;;;18.20;86.60;;;;;;5062172;28;20502;-45
2021/07/14 01:31:40;;;;;;;8.50;5.20;;;18.20;86.60;;;;;;5064709;28;20458;-45
2021/07/14 01:34:11;;;;;;;4.80;4.30;;;18.20;86.40;;;;;;5061878;28;20450;-45
2021/07/14 01:36:44;;;;;;;5.40;4.03;;;18.20;86.50;;;;;;5066327;28;20464;-45
2021/07/14 01:39:13;;;;;;;6.00;3.87;;;18.20;86.60;;;;;;5092450;28;20474;-44
2021/07/14 01:41:45;;;;;;;6.43;4.43;;;18.20;86.70;;;;;;5058547;28;20822;-45
2021/07/14 01:44:13;;;;;;;5.27;4.40;;;18.20;86.80;;;;;;5058918;28;20461;-44
2021/07/14 01:46:41;;;;;;;4.60;4.20;;;18.20;86.80;;;;;;5064226;28;20477;-45
2021/07/14 01:49:12;;;;;;;6.00;3.97;;;18.20;86.50;;;;;;5062219;28;20942;-46
2021/07/14 01:51:44;;;;;;;5.20;4.17;;;18.20;86.60;;;;;;5058681;28;20476;-45
2021/07/14 01:54:18;;;;;;;7.10;4.13;;;18.20;86.80;;;;;;5058208;28;20446;-45
2021/07/14 01:56:48;;;;;;;4.83;4.20;;;18.20;86.70;;;;;;5064135;28;20453;-45
2021/07/14 01:59:17;;;;;;;9.17;5.73;;;18.20;86.70;;;;;;5057605;28;20461;-44
2021/07/14 02:01:45;;;;;;;4.20;3.50;;;18.20;86.70;;;;;;5060281;28;20446;-43
2021/07/14 02:04:32;;;;;;;3.90;3.60;;;18.20;86.70;;;;;;5093439;28;20454;-44
2021/07/14 02:07:01;;;;;;;5.53;4.63;;;18.20;86.60;;;;;;5059868;28;20481;-44
2021/07/14 02:09:28;;;;;;;6.00;4.80;;;18.20;86.50;;;;;;5062595;28;20480;-43
2021/07/14 02:11:57;;;;;;;5.63;4.43;;;18.20;86.50;;;;;;5089880;28;20454;-43
2021/07/14 02:14:30;;;;;;;6.20;3.90;;;18.20;86.70;;;;;;5062453;28;20454;-45
2021/07/14 02:17:06;;;;;;;5.83;4.70;;;18.20;86.30;;;;;;5056773;28;20475;-43
2021/07/14 02:19:36;;;;;;;6.23;4.10;;;18.20;86.30;;;;;;5060416;28;21007;-44
2021/07/14 02:22:03;;;;;;;6.40;4.47;;;18.20;86.40;;;;;;5059519;28;21147;-43
2021/07/14 02:24:32;;;;;;;4.20;3.70;;;18.20;86.20;;;;;;5060569;28;20553;-45
2021/07/14 02:27:06;;;;;;;5.20;4.70;;;18.20;86.10;;;;;;5061830;28;20493;-44
2021/07/14 02:29:38;;;;;;;5.03;4.13;;;18.20;86.20;;;;;;5062675;28;20548;-44
2021/07/14 02:32:06;;;;;;;7.17;3.57;;;18.20;85.80;;;;;;5061268;28;20473;-44
2021/07/14 02:34:34;;;;;;;6.57;4.07;;;18.20;85.30;;;;;;5092682;28;20914;-43
2021/07/14 02:37:05;;;;;;;4.70;3.60;;;18.20;85.80;;;;;;5062083;28;20462;-44
2021/07/14 02:39:33;;;;;;;5.60;4.07;;;18.10;85.90;;;;;;5055937;28;20466;-44
2021/07/14 02:42:09;;;;;;;5.83;4.60;;;18.10;85.80;;;;;;5060059;28;20832;-44
2021/07/14 02:44:40;;;;;;;6.87;4.10;;;18.10;85.90;;;;;;5057390;28;20464;-44
2021/07/14 02:47:08;;;;;;;5.30;4.80;;;18.10;86.30;;;;;;5060077;28;20494;-44
2021/07/14 02:49:39;;;;;;;7.57;4.70;;;18.00;86.60;;;;;;5059701;28;20887;-44
2021/07/14 02:52:09;;;;;;;6.30;4.80;;;18.00;86.70;;;;;;5059107;28;20701;-43
2021/07/14 02:54:40;;;;;;;4.40;4.00;;;18.00;86.80;;;;;;5063282;28;20454;-44
2021/07/14 02:57:13;;;;;;;4.90;4.00;;;18.10;86.80;;;;;;5059452;28;20454;-44
2021/07/14 02:59:44;;;;;;;4.90;4.47;;;18.10;86.50;;;;;;5059937;28;20823;-44
2021/07/14 03:02:15;;;;;;;8.43;4.00;;;18.10;86.40;;;;;;5068151;28;21139;-44
2021/07/14 03:04:46;;;;;;;6.30;4.87;;;18.00;86.70;;;;;;5056953;28;20468;-44
2021/07/14 03:07:18;;;;;;;6.20;4.23;;;18.10;86.60;;;;;;5057054;28;20532;-44
2021/07/14 03:09:46;;;;;;;6.00;5.23;;;18.10;86.70;;;;;;5060226;28;20453;-44
2021/07/14 03:12:15;;;;;;;7.37;5.10;;;18.00;86.80;;;;;;5059323;28;20465;-43
2021/07/14 03:15:09;;;;;;;7.90;4.67;;;18.00;86.80;;;;;;5056777;28;20458;-44
2021/07/14 03:17:38;;;;;;;6.67;4.60;;;18.10;86.50;;;;;;5054459;28;20539;-43
2021/07/14 03:20:08;;;;;;;6.90;4.80;;;18.10;86.30;;;;;;5058093;28;20465;-43
2021/07/14 03:22:42;;;;;;;5.13;4.50;;;18.10;85.90;;;;;;5063263;28;20466;-43
2021/07/14 03:25:11;;;;;;;8.10;5.63;;;18.10;85.80;;;;;;5057529;28;20968;-44
2021/07/14 03:27:40;;;;;;;5.63;5.03;;;18.00;86.10;;;;;;5061646;28;20517;-43
2021/07/14 03:30:09;;;;;;;5.90;4.70;;;18.00;86.30;;;;;;5059390;28;20458;-44
2021/07/14 03:32:37;;;;;;;5.37;4.90;;;18.00;86.80;;;;;;5059007;28;20443;-44
2021/07/14 03:35:04;;;;;;;7.07;4.87;;;18.00;86.80;;;;;;5062884;28;20454;-43
2021/07/14 03:37:31;;;;;;;7.27;5.47;;;18.00;86.80;;;;;;5058267;28;20458;-44
2021/07/14 03:40:02;;;;;;;11.77;5.70;;;18.00;86.90;;;;;;5059441;28;20474;-44
2021/07/14 03:42:32;;;;;;;5.97;4.83;;;18.00;86.90;;;;;;5056547;28;20458;-44
2021/07/14 03:45:00;;;;;;;5.97;4.83;;;18.00;86.80;;;;;;5062246;28;20468;-43
2021/07/14 03:47:31;;;;;;;9.23;4.87;;;18.00;86.80;;;;;;5063339;28;20610;-43
2021/07/14 03:49:58;;;;;;;5.70;5.10;;;18.00;86.70;;;;;;5086608;28;20457;-44
2021/07/14 03:52:26;;;;;;;7.50;5.80;;;18.00;86.80;;;;;;5061763;28;20445;-43
2021/07/14 03:54:54;;;;;;;7.30;4.90;;;18.00;86.70;;;;;;5057277;28;20812;-44
2021/07/14 03:57:23;;;;;;;8.83;5.90;;;18.00;86.80;;;;;;5059483;28;20459;-43
2021/07/14 03:59:50;;;;;;;6.40;5.80;;;18.00;86.90;;;;;;5054754;28;20501;-44
2021/07/14 04:02:17;;;;;;;5.67;4.30;;;18.00;86.70;;;;;;5062749;28;20557;-44
2021/07/14 04:04:52;;;;;;;6.53;4.67;;;18.00;86.60;;;;;;5056381;28;20556;-44
2021/07/14 04:07:24;;;;;;;8.23;4.67;;;18.00;86.40;;;;;;5059300;28;20496;-43
2021/07/14 04:09:51;;;;;;;5.60;4.50;;;18.00;86.30;;;;;;5060345;28;20572;-43
2021/07/14 04:12:17;;;;;;;5.03;4.60;;;18.00;86.30;;;;;;5056535;28;20596;-43
2021/07/14 04:14:44;;;;;;;6.40;3.80;;;18.10;86.40;;;;;;5056972;28;20454;-44
2021/07/14 04:17:12;;;;;;;5.50;4.83;;;18.10;85.40;;;;;;5056147;28;20462;-45
2021/07/14 04:19:40;;;;;;;5.27;4.10;;;18.00;85.70;;;;;;5060296;28;20803;-44
2021/07/14 04:22:09;;;;;;;4.30;3.50;;;18.10;85.50;;;;;;5087194;28;20458;-43
2021/07/14 04:24:36;;;;;;;6.40;3.90;;;18.10;85.40;;;;;;5057129;28;20824;-44
2021/07/14 04:27:03;;;;;;;4.33;3.23;;;18.10;85.70;;;;;;5058619;28;20486;-43
2021/07/14 04:29:30;;;;;;;4.67;3.30;;;18.10;85.70;;;;;;5058149;28;20483;-44
2021/07/14 04:31:57;;;;;;;3.70;3.40;;;18.10;85.60;;;;;;5060136;28;21030;-44
2021/07/14 04:34:24;;;;;;;5.57;3.90;;;18.10;85.80;;;;;;5059795;28;20958;-44
2021/07/14 04:36:51;;;;;;;6.33;3.63;;;18.10;85.30;;;;;;5062616;28;20457;-44
2021/07/14 04:39:18;;;;;;;4.30;3.80;;;18.10;85.30;;;;;;5059659;28;20469;-44
2021/07/14 04:41:46;;;;;;;5.00;3.73;;;18.10;85.10;;;;;;5061581;28;20464;-44
2021/07/14 04:44:18;;;;;;;7.07;3.80;;;18.10;84.60;;;;;;5062188;28;20763;-44
2021/07/14 04:46:45;;;;;;;3.87;3.17;;;18.10;84.70;;;;;;5060348;28;20496;-44
2021/07/14 04:49:12;;;;;;;4.90;3.60;;;18.10;84.80;;;;;;5064113;28;20454;-44
2021/07/14 04:51:38;;;;;;;8.33;4.20;;;18.10;85.10;;;;;;5060661;28;20460;-44
2021/07/14 04:54:05;;;;;;;6.70;4.07;;;18.10;84.70;;;;;;5065861;28;20458;-44
2021/07/14 04:56:33;;;;;;;6.20;3.43;;;18.10;84.60;;;;;;5064445;28;20803;-43
2021/07/14 04:59:00;;;;;;;4.27;3.87;;;18.00;85.00;;;;;;5064323;28;20541;-44
2021/07/14 05:01:27;;;;;;;5.80;4.40;;;18.00;85.30;;;;;;5061513;28;20526;-44
2021/07/14 05:03:54;;;;;;;5.70;3.70;;;18.00;84.90;;;;;;5059901;28;20455;-43
2021/07/14 05:06:20;;;;;;;5.60;3.70;;;18.10;84.80;;;;;;5062669;28;20455;-44
2021/07/14 05:08:47;;;;;;;5.17;3.93;;;18.10;84.80;;;;;;5060204;28;20486;-44
2021/07/14 05:11:14;;;;;;;7.80;3.67;;;18.10;84.80;;;;;;5065343;28;20446;-44
2021/07/14 05:13:42;;;;;;;4.03;3.63;;;18.10;84.30;;;;;;5060648;28;20454;-44
2021/07/14 05:16:09;;;;;;;4.17;3.70;;;18.10;84.30;;;;;;5064661;28;20458;-44
2021/07/14 05:18:37;;;;;;;5.80;3.90;;;18.10;84.70;;;;;;5063792;28;20484;-45
2021/07/14 05:21:04;;;;;;;4.30;3.90;;;18.10;84.80;;;;;;5063707;28;20466;-45
2021/07/14 05:23:32;;;;;;;4.67;3.83;;;18.10;85.20;;;;;;5059673;28;20454;-44
2021/07/14 05:25:59;;;;;;;11.40;4.00;;;18.10;85.10;;;;;;5063615;28;20457;-45
2021/07/14 05:28:26;;;;;;;6.30;3.70;;;18.10;85.00;;;;;;5062029;28;20572;-44
2021/07/14 05:30:53;;;;;;;6.03;4.17;;;18.10;85.10;;;;;;5066081;28;20464;-43
2021/07/14 05:33:20;;;;;;;6.27;3.20;;;18.10;85.00;;;;;;5062779;28;20452;-44
2021/07/14 05:35:47;;;;;;;4.17;3.77;;;18.10;85.20;;;;;;5095985;27;20454;-45
2021/07/14 05:38:19;;;;;;;7.80;3.77;;;18.10;85.40;;;;;;5065800;28;20457;-45
2021/07/14 05:40:49;;;;;;;4.53;3.50;;;18.10;85.30;;;;;;5056404;28;20462;-45
2021/07/14 05:43:17;;;;;;;2.90;2.67;;;18.10;85.20;;;;;;5091980;28;20468;-45
2021/07/14 05:45:44;;;;;;;3.53;3.10;;;18.20;84.70;;;;;;5058142;28;20983;-44
2021/07/14 05:48:11;;;;;;;3.90;3.60;;;18.20;84.90;;;;;;5061884;28;20897;-44
2021/07/14 05:50:38;;;;;;;4.20;3.53;;;18.20;85.00;;;;;;5061577;28;20453;-45
2021/07/14 05:53:06;;;;;;;4.50;3.10;;;18.10;85.10;;;;;;5060604;28;20459;-42
2021/07/14 05:55:33;;;;;;;6.43;3.60;;;18.20;85.00;;;;;;5066010;28;20454;-43
2021/07/14 05:58:00;;;;;;;5.40;2.90;;;18.20;85.10;;;;;;5048076;28;20473;-45
2021/07/14 06:00:27;;;;;;;4.13;3.30;;;18.20;85.00;;;;;;5058575;28;20811;-45
2021/07/14 06:02:54;;;;;;;2.93;2.70;;;18.20;85.00;;;;;;5063542;28;20511;-44
2021/07/14 06:05:21;;;;;;;3.57;2.77;;;18.20;84.40;;;;;;5058941;28;20485;-45
2021/07/14 06:07:48;;;;;;;5.57;3.10;;;18.20;84.20;;;;;;5089157;27;20489;-45
2021/07/14 06:10:15;;;;;;;3.00;2.80;;;18.20;84.50;;;;;;5061743;28;20441;-45
2021/07/14 06:12:42;;;;;;;3.17;2.57;;;18.20;84.60;;;;;;5062280;28;20462;-45
2021/07/14 06:15:09;;;;;;;4.57;2.70;;;18.20;84.50;;;;;;5086925;28;20466;-45
2021/07/14 06:17:36;;;;;;;3.43;2.73;;;18.20;84.30;;;;;;5088880;28;20852;-45
2021/07/14 06:20:07;;;;;;;3.20;2.50;;;18.20;84.40;;;;;;5060432;28;20930;-44
2021/07/14 06:22:33;;;;;;;4.33;3.43;;;18.10;84.10;;;;;;5058607;28;20461;-45
2021/07/14 06:25:00;;;;;;;4.40;3.47;;;18.20;84.20;;;;;;5057530;28;20509;-45
2021/07/14 06:27:43;;;;;;;3.37;3.07;;;18.20;84.50;;;;;;5060704;28;20509;-45
2021/07/14 06:30:12;;;;;;;7.03;3.93;;;18.20;84.90;;;;;;5061422;28;20520;-44
2021/07/14 06:32:40;;;;;;;3.90;3.23;;;18.20;84.70;;;;;;5063044;28;20442;-45
2021/07/14 06:35:10;;;;;;;4.47;3.33;;;18.20;84.40;;;;;;5066048;28;20942;-46
2021/07/14 06:37:38;;;;;;;3.33;3.03;;;18.20;84.30;;;;;;5061356;28;20461;-45
2021/07/14 06:40:10;;;;;;;5.80;2.80;;;18.30;84.20;;;;;;5061655;28;20876;-45
2021/07/14 06:42:38;;;;;;;3.50;3.20;;;18.30;84.40;;;;;;5062904;28;20521;-46
2021/07/14 06:45:07;;;;;;;3.60;2.83;;;18.30;84.80;;;;;;5060511;28;20543;-46
2021/07/14 06:47:35;;;;;;;4.10;3.03;;;18.30;85.00;;;;;;5059797;28;20853;-45
2021/07/14 06:50:03;;;;;;;4.73;3.53;;;18.30;84.70;;;;;;5053793;28;21032;-46
2021/07/14 06:52:30;;;;;;;3.80;2.50;;;18.30;84.80;;;;;;5057906;28;20798;-46
2021/07/14 06:54:57;;;;;;;5.87;3.07;;;18.40;84.80;;;;;;5055645;28;20461;-44
2021/07/14 06:57:25;;;;;;;5.77;2.83;;;18.40;84.60;;;;;;5086537;28;20464;-46
2021/07/14 06:59:52;;;;;;;8.83;3.27;;;18.50;84.10;;;;;;5055470;28;20454;-46
2021/07/14 07:02:18;;;;;;;3.60;3.10;;;18.50;83.70;;;;;;5060304;28;20474;-44
2021/07/14 07:04:45;;;;;;;4.50;2.33;;;18.50;83.80;;;;;;5056790;28;20456;-47
2021/07/14 07:07:12;;;;;;;3.80;2.60;;;18.60;83.80;;;;;;5056136;28;20464;-45
2021/07/14 07:09:39;;;;;;;3.47;2.33;;;18.60;83.50;;;;;;5057837;28;20513;-46
2021/07/14 07:12:07;;;;;;;3.40;2.53;;;18.70;83.40;;;;;;5062162;28;20454;-46
2021/07/14 07:14:34;;;;;;;5.67;2.50;;;18.70;83.60;;;;;;5060470;28;20468;-44
2021/07/14 07:17:01;;;;;;;3.07;2.80;;;18.70;83.40;;;;;;5057583;28;20447;-45
2021/07/14 07:19:27;;;;;;;3.30;2.40;;;18.80;83.00;;;;;;5059686;28;20495;-46
2021/07/14 07:21:54;;;;;;;2.40;2.20;;;18.80;82.40;;;;;;5058713;28;20527;-44
2021/07/14 07:24:24;;;;;;;3.07;2.53;;;18.80;82.30;;;;;;5060545;28;20462;-45
2021/07/14 07:26:50;;;;;;;4.23;2.90;;;18.90;82.60;;;;;;5056835;28;20465;-45
2021/07/14 07:29:17;;;;;;;3.43;2.63;;;18.90;82.20;;;;;;5062942;28;20527;-46
2021/07/14 07:31:44;;;;;;;3.60;2.63;;;18.90;81.80;;;;;;5059216;28;20449;-46
2021/07/14 07:34:11;;;;;;;3.43;2.87;;;18.90;82.00;;;;;;5060739;28;20465;-43
2021/07/14 07:36:38;;;;;;;9.53;2.70;;;18.90;81.90;;;;;;5058105;28;20545;-45
2021/07/14 07:39:06;;;;;;;1.83;1.73;;;18.80;82.40;;;;;;5058665;28;20461;-47
2021/07/14 07:41:34;;;;;;;3.03;2.83;;;18.80;82.90;;;;;;5058347;28;20462;-46
2021/07/14 07:44:04;;;;;;;2.50;2.30;;;18.80;83.00;;;;;;5088805;28;20504;-45
2021/07/14 07:46:32;;;;;;;5.17;2.43;;;18.80;82.70;;;;;;5060811;28;20550;-44
2021/07/14 07:48:59;;;;;;;3.53;2.87;;;18.80;82.80;;;;;;5063863;28;20486;-46
2021/07/14 07:51:26;;;;;;;3.00;2.23;;;18.90;82.80;;;;;;5060964;28;20977;-45
2021/07/14 07:53:53;;;;;;;5.50;2.70;;;18.90;82.50;;;;;;5056880;28;20819;-46
2021/07/14 07:56:21;;;;;;;3.03;2.30;;;18.90;82.60;;;;;;5087002;28;20445;-44
2021/07/14 07:58:47;;;;;;;6.33;2.60;;;19.00;82.60;;;;;;5059359;28;20468;-44
2021/07/14 08:01:14;;;;;;;3.77;3.47;;;19.00;82.40;;;;;;5060524;28;20438;-46
2021/07/14 08:03:41;;;;;;;4.10;2.83;;;19.10;82.20;;;;;;5061201;28;20446;-46
2021/07/14 08:06:08;;;;;;;3.67;2.60;;;19.10;81.40;;;;;;5056638;28;20458;-46
2021/07/14 08:08:35;;;;;;;4.10;3.73;;;19.10;81.70;;;;;;5063931;28;20852;-44
2021/07/14 08:11:02;;;;;;;5.83;4.00;;;19.10;82.10;;;;;;5064061;28;20817;-45
2021/07/14 08:13:28;;;;;;;7.17;4.23;;;19.10;82.20;;;;;;5060632;28;20462;-46
2021/07/14 08:15:57;;;;;;;3.60;2.57;;;19.10;82.50;;;;;;5066856;28;20950;-46
2021/07/14 08:18:24;;;;;;;3.57;2.50;;;19.10;82.10;;;;;;5063139;28;20488;-45
2021/07/14 08:20:56;;;;;;;4.10;3.23;;;19.10;81.50;;;;;;5059023;28;20469;-46
2021/07/14 08:23:24;;;;;;;7.23;3.20;;;19.10;81.30;;;;;;5058525;28;20462;-45
2021/07/14 08:25:53;;;;;;;4.80;3.00;;;19.10;81.30;;;;;;5063818;28;20954;-46
2021/07/14 08:28:21;;;;;;;3.53;2.20;;;19.10;81.40;;;;;;5063518;28;20923;-45
2021/07/14 08:30:48;;;;;;;2.70;2.33;;;19.10;81.10;;;;;;5065892;28;20952;-46
2021/07/14 08:33:16;;;;;;;3.80;2.70;;;19.00;81.40;;;;;;5096692;28;20442;-47
2021/07/14 08:35:42;;;;;;;2.33;2.13;;;19.00;81.30;;;;;;5062395;28;20450;-45
2021/07/14 08:38:09;;;;;;;3.87;2.80;;;19.00;81.40;;;;;;5068898;28;20517;-44
2021/07/14 08:40:39;;;;;;;2.43;2.10;;;19.00;81.60;;;;;;5066581;28;20460;-45
2021/07/14 08:43:08;;;;;;;2.77;2.20;;;19.00;81.80;;;;;;5065800;28;20875;-44
2021/07/14 08:45:37;;;;;;;2.90;2.00;;;19.00;81.60;;;;;;5065086;28;20465;-43
2021/07/14 08:48:06;;;;;;;3.33;1.97;;;19.00;81.70;;;;;;5095679;28;20568;-44
2021/07/14 08:50:41;;;;;;;2.30;2.10;;;18.90;81.70;;;;;;5063031;28;20826;-46
2021/07/14 08:53:09;;;;;;;2.27;2.07;;;18.90;82.20;;;;;;5068498;28;20485;-44
2021/07/14 08:55:35;;;;;;;2.53;2.33;;;18.90;82.70;;;;;;5065349;28;20457;-45
2021/07/14 08:58:03;;;;;;;3.00;2.13;;;18.90;82.80;;;;;;5065295;28;21010;-45
2021/07/14 09:00:31;;;;;;;3.00;2.20;;;18.90;82.80;;;;;;5065406;28;20910;-46
2021/07/14 09:02:58;;;;;;;5.60;2.77;;;19.00;82.50;;;;;;5065242;28;20449;-45
2021/07/14 09:05:25;;;;;;;2.47;2.27;;;19.00;82.40;;;;;;5060224;28;20465;-45
2021/07/14 09:07:51;;;;;;;2.40;2.20;;;19.00;82.10;;;;;;5068726;28;20453;-44
2021/07/14 09:10:18;;;;;;;3.03;2.27;;;19.00;81.70;;;;;;5069059;28;20472;-45
2021/07/14 09:12:46;;;;;;;2.33;2.07;;;19.00;81.80;;;;;;5071192;28;20595;-45
2021/07/14 09:15:15;;;;;;;3.43;2.50;;;19.00;82.00;;;;;;5064801;28;20956;-45
2021/07/14 09:17:45;;;;;;;3.33;2.23;;;19.00;82.30;;;;;;5065036;28;20482;-45
2021/07/14 09:20:19;;;;;;;2.50;2.13;;;18.90;82.60;;;;;;5064474;28;20457;-43
2021/07/14 09:22:48;;;;;;;3.47;2.20;;;18.90;82.70;;;;;;5036303;28;20461;-45
2021/07/14 09:25:17;;;;;;;2.63;2.43;;;18.90;82.70;;;;;;5058438;28;20464;-45
2021/07/14 09:27:54;;;;;;;2.63;2.40;;;19.00;82.40;;;;;;5062904;28;20536;-46
2021/07/14 09:30:23;;;;;;;2.30;2.10;;;18.90;82.30;;;;;;5088976;28;20458;-44
2021/07/14 09:32:56;;;;;;;2.70;2.40;;;18.90;82.30;;;;;;5063676;28;20497;-46
2021/07/14 09:35:30;;;;;;;4.30;2.37;;;18.90;82.20;;;;;;5094954;27;20825;-46
2021/07/14 09:38:00;;;;;;;2.90;2.10;;;18.90;82.40;;;;;;5061656;28;20833;-44
2021/07/14 09:40:28;;;;;;;2.97;2.10;;;18.90;82.50;;;;;;5062573;28;20462;-45
2021/07/14 09:43:01;;;;;;;3.30;2.60;;;18.90;82.60;;;;;;5061084;28;20451;-44
2021/07/14 09:45:39;;;;;;;2.57;2.17;;;18.90;82.60;;;;;;5058549;28;20450;-45
2021/07/14 09:48:08;;;;;;;2.67;2.47;;;18.90;82.60;;;;;;5061883;28;20488;-44
2021/07/14 09:50:37;;;;;;;2.50;2.03;;;18.90;82.70;;;;;;5069221;28;21653;-43
2021/07/14 09:53:08;;;;;;;3.30;3.00;;;18.90;82.70;;;;;;5058453;28;20951;-44
2021/07/14 09:55:35;;;;;;;3.37;2.53;;;18.90;83.10;;;;;;5065865;28;20474;-44
2021/07/14 09:58:21;;;;;;;4.70;2.40;;;18.90;83.30;;;;;;5061702;28;20453;-45
2021/07/14 10:00:51;;;;;;;2.43;2.23;;;19.00;83.30;;;;;;5062000;28;20472;-44
2021/07/14 10:03:22;;;;;;;5.90;2.50;;;19.00;83.30;;;;;;5058832;28;20442;-44
2021/07/14 10:06:03;;;;;;;2.57;2.37;;;19.00;83.20;;;;;;5061503;28;20454;-46
2021/07/14 10:08:33;;;;;;;5.13;2.60;;;19.00;83.10;;;;;;5059909;28;20521;-46
2021/07/14 10:11:23;;;;;;;2.77;2.50;;;19.00;83.20;;;;;;5086058;28;20850;-45
2021/07/14 10:13:54;;;;;;;5.10;2.73;;;19.00;83.10;;;;;;5060670;28;20453;-45
2021/07/14 10:16:23;;;;;;;4.03;2.53;;;19.00;82.70;;;;;;5061697;28;20450;-45
2021/07/14 10:19:10;;;;;;;3.00;2.80;;;19.00;82.90;;;;;;5098222;27;21038;-45
2021/07/14 10:21:49;;;;;;;3.23;2.90;;;19.10;83.00;;;;;;5056397;28;21194;-45
2021/07/14 10:24:18;;;;;;;6.03;3.10;;;19.10;83.00;;;;;;5056823;28;20458;-45
2021/07/14 10:26:48;;;;;;;2.73;2.53;;;19.10;82.90;;;;;;5088545;28;20951;-45
2021/07/14 10:29:19;;;;;;;2.60;2.40;;;19.20;82.80;;;;;;5058417;28;20482;-45
2021/07/14 10:31:50;;;;;;;3.60;3.30;;;19.20;83.00;;;;;;5066548;28;20529;-45
2021/07/14 10:34:20;;;;;;;2.80;2.60;;;19.20;83.00;;;;;;5063107;28;20455;-45
2021/07/14 10:36:51;;;;;;;3.33;3.03;;;19.20;83.00;;;;;;5061373;28;20537;-43
2021/07/14 10:39:24;;;;;;;3.93;2.90;;;19.20;83.00;;;;;;5056122;28;20831;-45
2021/07/14 10:41:51;;;;;;;3.90;3.60;;;19.20;83.10;;;;;;5065060;28;20480;-44
2021/07/14 10:44:20;;;;;;;3.10;2.80;;;19.30;82.50;;;;;;5060093;28;20454;-45
2021/07/14 10:46:47;;;;;;;3.43;3.10;;;19.30;82.00;;;;;;5060323;28;20466;-44
2021/07/14 10:49:17;;;;;;;3.33;3.00;;;19.30;82.10;;;;;;5059547;28;20556;-44
2021/07/14 10:51:43;;;;;;;4.03;3.30;;;19.30;82.20;;;;;;5056584;28;20465;-44
2021/07/14 10:54:11;;;;;;;3.30;3.00;;;19.20;82.50;;;;;;5063262;28;20449;-46
2021/07/14 10:56:44;;;;;;;2.97;2.67;;;19.30;82.50;;;;;;5062261;28;20461;-45
2021/07/14 10:59:13;;;;;;;3.57;3.27;;;19.40;82.20;;;;;;5062302;28;20923;-45
2021/07/14 11:01:49;;;;;;;4.03;3.73;;;19.40;81.80;;;;;;5060545;28;20438;-45
2021/07/14 11:04:25;;;;;;;3.90;3.60;;;19.40;81.90;;;;;;5060952;28;20503;-45
2021/07/14 11:07:04;;;;;;;4.83;3.43;;;19.40;81.90;;;;;;5058675;28;20959;-45
2021/07/14 11:09:40;;;;;;;3.80;3.50;;;19.50;82.00;;;;;;5060069;28;20482;-45
2021/07/14 11:12:10;;;;;;;4.23;3.83;;;19.50;81.00;;;;;;5059751;28;20448;-45
2021/07/14 11:14:49;;;;;;;2.93;2.73;;;19.50;81.00;;;;;;5063989;28;21081;-45
2021/07/14 11:17:29;;;;;;;4.20;3.60;;;19.60;81.00;;;;;;5064778;28;20859;-46
2021/07/14 11:20:12;;;;;;;3.53;3.23;;;19.60;81.20;;;;;;5058339;28;20438;-44
2021/07/14 11:22:48;;;;;;;4.17;2.87;;;19.60;81.30;;;;;;5062992;28;20480;-46
2021/07/14 11:25:25;;;;;;;3.67;2.80;;;19.60;81.40;;;;;;5059163;28;20962;-45
2021/07/14 11:28:18;;;;;;;2.90;2.70;;;19.60;81.30;;;;;;5061912;28;20468;-45
2021/07/14 11:30:58;;;;;;;3.10;2.77;;;19.70;80.80;;;;;;5090034;28;20447;-46
2021/07/14 11:33:34;;;;;;;3.20;2.90;;;19.60;80.90;;;;;;5057555;28;20465;-45
2021/07/14 11:36:09;;;;;;;2.80;2.60;;;19.60;81.00;;;;;;5061361;28;20454;-46
2021/07/14 11:38:48;;;;;;;3.10;2.73;;;19.60;81.10;;;;;;5065580;28;20453;-45
2021/07/14 11:41:35;;;;;;;3.00;2.70;;;19.60;81.10;;;;;;5059452;28;20480;-46
2021/07/14 11:44:03;;;;;;;2.90;2.57;;;19.60;81.00;;;;;;5067205;28;20454;-45
2021/07/14 11:46:30;;;;;;;2.80;2.60;;;19.50;81.10;;;;;;5067998;28;20826;-46
2021/07/14 11:49:06;;;;;;;2.63;2.43;;;19.50;81.00;;;;;;5065486;28;21062;-46
2021/07/14 11:51:40;;;;;;;2.50;2.30;;;19.50;80.80;;;;;;5087123;28;21035;-45
2021/07/14 11:54:23;;;;;;;2.80;2.60;;;19.50;80.70;;;;;;5062280;28;20457;-45
2021/07/14 11:56:51;;;;;;;2.23;2.13;;;19.50;81.00;;;;;;5061131;28;20903;-46
2021/07/14 11:59:27;;;;;;;5.40;2.67;;;19.40;81.30;;;;;;5068436;28;20458;-45
2021/07/14 12:01:58;;;;;;;5.70;2.27;;;19.40;81.50;;;;;;5091038;28;20852;-46
2021/07/14 12:04:30;;;;;;;3.87;2.50;;;19.40;81.70;;;;;;5067009;28;20466;-45
2021/07/14 12:07:07;;;;;;;4.00;2.50;;;19.40;82.00;;;;;;5070323;28;20457;-46
2021/07/14 12:09:36;;;;;;;2.70;2.50;;;19.30;82.20;;;;;;5067782;28;20509;-47
2021/07/14 12:12:05;;;;;;;3.00;2.80;;;19.30;81.90;;;;;;5063351;28;20484;-46
2021/07/14 12:14:37;;;;;;;2.57;2.20;;;19.20;82.30;;;;;;5069355;28;20869;-46
2021/07/14 12:17:08;;;;;;;3.60;2.60;;;19.20;82.90;;;;;;5066342;28;20462;-46
2021/07/14 12:19:38;;;;;;;3.87;2.97;;;19.20;83.50;;;;;;5068105;28;20491;-45
2021/07/14 12:22:39;;;;;;;3.43;2.77;;;19.20;83.60;;;;;;5060732;28;20489;-47
2021/07/14 12:25:10;;;;;;;3.53;3.10;;;19.20;83.70;;;;;;5043216;28;20502;-46
2021/07/14 12:27:39;;;;;;;7.43;3.47;;;19.20;84.40;;;;;;5064557;28;20458;-46
2021/07/14 12:30:09;;;;;;;4.70;3.40;;;19.20;84.70;;;;;;5092043;28;20474;-45
2021/07/14 12:32:58;;;;;;;3.57;3.27;;;19.20;85.20;;;;;;5064422;28;20503;-45
2021/07/14 12:35:30;;;;;;;3.07;2.87;;;19.20;85.10;;;;;;5067501;28;20459;-45
2021/07/14 12:38:00;;;;;;;4.40;3.63;;;19.20;85.30;;;;;;5064850;28;20470;-44
2021/07/14 12:40:28;;;;;;;5.43;3.73;;;19.30;85.00;;;;;;5090425;28;20457;-45
2021/07/14 12:42:58;;;;;;;4.07;3.67;;;19.30;85.20;;;;;;5066819;28;20468;-46
2021/07/14 12:45:29;;;;;;;6.13;4.20;;;19.20;84.70;;;;;;5061880;28;20462;-44
2021/07/14 12:48:01;;;;;;;3.70;3.40;;;19.20;85.20;;;;;;5068883;28;20471;-45
2021/07/14 12:50:28;;;;;;;7.67;3.50;;;19.20;85.50;;;;;;5067244;28;20494;-45
2021/07/14 12:52:57;;;;;;;3.60;3.30;;;19.20;85.70;;;;;;5066283;28;20462;-45
2021/07/14 12:55:25;;;;;;;3.83;3.53;;;19.20;86.00;;;;;;5061943;28;20977;-45
2021/07/14 12:57:53;;;;;;;4.43;3.47;;;19.20;86.00;;;;;;5067274;28;20461;-45
2021/07/14 13:00:22;;;;;;;4.07;3.67;;;19.30;86.10;;;;;;5063937;28;20483;-44
2021/07/14 13:02:56;;;;;;;7.00;3.60;;;19.30;86.40;;;;;;5063260;28;20466;-44
2021/07/14 13:05:24;;;;;;;3.30;3.10;;;19.30;86.40;;;;;;5092644;28;20466;-44
2021/07/14 13:07:53;;;;;;;4.80;3.37;;;19.30;86.60;;;;;;5091696;27;20458;-45